Grand Forks Air Force Base Grand Forks US
ICAO: KRDR
IATA: RDR
Category: Medium
Scheduled Services: No

Elevation: 913 ft
TransAlt. 18000 ft.

Airport Communications:
APP/DEP:118.1
ATIS:27.345
CLNC DEL:119.15
GND:119.15
PMSV METRO:34.35
COMD POST:31.1
PTD:37.22
RDO:122.2
RED RIVER TWR:124.9

KRDR Zoom In..

If you have problems with the map follow the link
https://www.worldairports.se/pages/airport.php?
ICAO=KRDR

Runways:

(A) RW 17 length 12351 ft width 150 ft
ILS 111.30 / hdg 174

(B) RW 35 length 12351 ft width 150 ft
ILS 109.90 / hdg 354

Location; KRDR
Day. 18 / Time. 20.56 Zulu
* Altimeter: 30.46
* Temperature: -21° c. 5.8°f.
* Wind from: 030° Speed 09 kn.
Dewpoint: -27° c.
Visibility: 10 Statute Miles.
Clouds: Scattered 12000 ft.

KRDR 182056Z 03009KT 10SM SCT120 M21/M27 A3046 RMK AO2A SLP350 T12061266 53001 $


Wind From 030°
Speed 09 kn.

 
 
jpsmedia.com for Web Design worldairports.se 2019   terms of use